Time;durP1;ratioP1;P1;durP2;ratioP2;P2;SDS_P1;SDS_P2;PMS_P1;PMS_P2;Temp;Humidity;BMP_temperature;BMP_pressure;BME280_temperature;BME280_humidity;BME280_pressure;Samples;Min_cycle;Max_cycle;Signal;HPM_P1;HPM_P2
2024/04/12 00:01:12;;;;;;;0.10;0.10;;;;;;;12.52;100.00;100955.97;5424903;26;20077;-58
2024/04/12 00:03:47;;;;;;;0.10;0.10;;;;;;;12.39;100.00;100955.22;5421778;26;20003;-58
2024/04/12 00:06:17;;;;;;;0.10;0.10;;;;;;;12.28;100.00;100954.84;5433109;26;20003;-58
2024/04/12 00:08:47;;;;;;;0.20;0.20;;;;;;;12.23;100.00;100951.09;5411960;26;20003;-58
2024/04/12 00:11:14;;;;;;;0.10;0.10;;;;;;;12.10;100.00;100949.28;5408944;26;20000;-58
2024/04/12 00:13:46;;;;;;;0.10;0.10;;;;;;;12.13;100.00;100953.41;5413429;26;20004;-58
2024/04/12 00:16:12;;;;;;;0.15;0.15;;;;;;;12.13;100.00;100951.56;5429584;26;20379;-58
2024/04/12 00:18:45;;;;;;;0.20;0.20;;;;;;;11.99;100.00;100949.94;5419281;26;20015;-58
2024/04/12 00:21:11;;;;;;;0.20;0.20;;;;;;;12.00;100.00;100952.41;5433973;26;20057;-58
2024/04/12 00:23:41;;;;;;;0.10;0.10;;;;;;;11.99;100.00;100949.94;5419697;26;20415;-58
2024/04/12 00:26:07;;;;;;;0.20;0.20;;;;;;;11.98;100.00;100953.66;5427883;26;20013;-59
2024/04/12 00:28:37;;;;;;;0.20;0.20;;;;;;;11.96;100.00;100948.50;5453456;26;19999;-58
2024/04/12 00:31:06;;;;;;;0.10;0.10;;;;;;;11.82;100.00;100944.97;5425717;26;20007;-58
2024/04/12 00:33:40;;;;;;;0.10;0.10;;;;;;;11.66;100.00;100943.53;5413794;26;20015;-58
2024/04/12 00:36:12;;;;;;;0.20;0.20;;;;;;;11.61;100.00;100942.53;5431551;26;20007;-58
2024/04/12 00:38:46;;;;;;;0.10;0.10;;;;;;;11.59;100.00;100937.34;5412525;26;20004;-58
2024/04/12 00:41:18;;;;;;;0.10;0.10;;;;;;;11.61;100.00;100935.28;5383656;26;20003;-58
2024/04/12 00:43:48;;;;;;;0.20;0.20;;;;;;;11.63;100.00;100938.59;5414277;26;20447;-58
2024/04/12 00:46:15;;;;;;;0.20;0.20;;;;;;;11.64;100.00;100923.31;5418389;26;20011;-58
2024/04/12 00:48:45;;;;;;;0.10;0.10;;;;;;;11.57;100.00;100925.97;5423432;26;20010;-58
2024/04/12 00:51:16;;;;;;;0.20;0.20;;;;;;;11.57;100.00;100930.53;5423987;26;20017;-58
2024/04/12 00:53:47;;;;;;;0.20;0.20;;;;;;;11.61;100.00;100918.34;5417472;26;20396;-59
2024/04/12 00:56:16;;;;;;;0.10;0.10;;;;;;;11.44;100.00;100918.75;5415851;26;20132;-59
2024/04/12 00:58:47;;;;;;;0.20;0.20;;;;;;;11.51;100.00;100920.63;5420805;26;20014;-59
2024/04/12 01:01:15;;;;;;;0.20;0.20;;;;;;;11.53;100.00;100915.84;5420017;26;20022;-59
2024/04/12 01:03:45;;;;;;;0.20;0.20;;;;;;;11.45;100.00;100912.34;5407182;26;20095;-59
2024/04/12 01:06:16;;;;;;;0.15;0.15;;;;;;;11.48;100.00;100918.34;5422079;26;20440;-59
2024/04/12 01:08:46;;;;;;;0.20;0.20;;;;;;;11.45;100.00;100923.09;5410939;26;20924;-59
2024/04/12 01:11:15;;;;;;;0.20;0.20;;;;;;;11.28;100.00;100926.38;5413801;26;20404;-58
2024/04/12 01:13:46;;;;;;;0.20;0.20;;;;;;;10.91;100.00;100925.94;5409275;26;20496;-59
2024/04/12 01:16:12;;;;;;;0.20;0.20;;;;;;;10.87;100.00;100914.78;5425202;26;19999;-59
2024/04/12 01:18:42;;;;;;;0.20;0.20;;;;;;;10.69;100.00;100917.22;5412468;26;20396;-59
2024/04/12 01:21:11;;;;;;;0.20;0.20;;;;;;;10.74;100.00;100910.22;5425045;26;20014;-60
2024/04/12 01:23:44;;;;;;;0.10;0.10;;;;;;;10.69;100.00;100906.50;5419941;26;20072;-59
2024/04/12 01:26:13;;;;;;;0.10;0.10;;;;;;;10.58;100.00;100911.41;5416026;26;20014;-59
2024/04/12 01:28:45;;;;;;;0.20;0.20;;;;;;;10.54;100.00;100910.16;5424671;26;20107;-59
2024/04/12 01:31:15;;;;;;;0.10;0.10;;;;;;;10.61;100.00;100910.19;5418902;26;19999;-59
2024/04/12 01:33:49;;;;;;;0.20;0.20;;;;;;;10.68;100.00;100907.50;5419019;26;20043;-60
2024/04/12 01:36:17;;;;;;;0.20;0.20;;;;;;;10.54;100.00;100902.13;5420751;26;20145;-60
2024/04/12 01:38:53;;;;;;;0.20;0.20;;;;;;;10.38;100.00;100905.13;5415165;26;20341;-59
2024/04/12 01:41:27;;;;;;;0.17;0.17;;;;;;;10.30;100.00;100911.50;5419760;26;19999;-59
2024/04/12 01:44:01;;;;;;;0.20;0.20;;;;;;;10.24;100.00;100914.13;5418066;26;20011;-59
2024/04/12 01:46:27;;;;;;;0.20;0.20;;;;;;;10.14;100.00;100909.94;5420604;26;19999;-59
2024/04/12 01:48:57;;;;;;;0.20;0.20;;;;;;;10.13;100.00;100902.09;5388349;26;20711;-59
2024/04/12 01:51:24;;;;;;;0.20;0.20;;;;;;;10.02;100.00;100911.53;5418516;26;20004;-60
2024/04/12 01:53:57;;;;;;;0.20;0.20;;;;;;;10.01;100.00;100911.72;5413785;26;20402;-59
2024/04/12 01:56:30;;;;;;;0.20;0.20;;;;;;;10.04;100.00;100914.84;5418298;26;20038;-59
2024/04/12 01:58:59;;;;;;;0.20;0.20;;;;;;;10.10;100.00;100922.09;5411212;26;20078;-59
2024/04/12 02:01:27;;;;;;;0.20;0.20;;;;;;;10.32;100.00;100922.03;5415925;26;20540;-59
2024/04/12 02:03:56;;;;;;;0.20;0.20;;;;;;;10.36;100.00;100915.25;5415149;26;20026;-59
2024/04/12 02:06:23;;;;;;;0.20;0.20;;;;;;;10.40;100.00;100913.81;5417432;26;20034;-59
2024/04/12 02:08:52;;;;;;;0.20;0.20;;;;;;;10.43;100.00;100910.72;5411378;26;20002;-59
2024/04/12 02:11:23;;;;;;;0.20;0.20;;;;;;;10.55;100.00;100910.97;5419260;26;20871;-59
2024/04/12 02:13:57;;;;;;;0.20;0.20;;;;;;;10.63;100.00;100904.59;5409863;26;20022;-59
2024/04/12 02:16:23;;;;;;;0.15;0.15;;;;;;;10.69;100.00;100898.44;5416764;26;20055;-59
2024/04/12 02:18:52;;;;;;;0.20;0.20;;;;;;;10.28;100.00;100899.31;5424687;26;20793;-59
2024/04/12 02:21:19;;;;;;;0.20;0.20;;;;;;;10.33;100.00;100896.88;5410639;26;20015;-59
2024/04/12 02:23:48;;;;;;;0.30;0.30;;;;;;;10.31;100.00;100898.94;5416951;26;20502;-59
2024/04/12 02:26:15;;;;;;;0.20;0.20;;;;;;;10.25;100.00;100894.34;5422989;26;19999;-59
2024/04/12 02:28:47;;;;;;;0.20;0.20;;;;;;;9.84;100.00;100897.84;5414082;26;20675;-59
2024/04/12 02:31:19;;;;;;;0.30;0.30;;;;;;;9.81;100.00;100898.22;5422231;26;20014;-59
2024/04/12 02:33:48;;;;;;;0.20;0.20;;;;;;;9.69;100.00;100896.09;5416446;26;20678;-59
2024/04/12 02:36:17;;;;;;;0.20;0.20;;;;;;;9.57;100.00;100897.66;5407522;26;20708;-59
2024/04/12 02:38:49;;;;;;;0.20;0.20;;;;;;;9.56;100.00;100900.50;5423765;26;20029;-59
2024/04/12 02:41:16;;;;;;;0.20;0.20;;;;;;;9.76;100.00;100901.50;5422909;26;20003;-59
2024/04/12 02:43:51;;;;;;;0.10;0.10;;;;;;;9.85;100.00;100902.16;5411479;26;20003;-59
2024/04/12 02:46:22;;;;;;;0.20;0.20;;;;;;;9.97;100.00;100910.47;5409516;26;20003;-59
2024/04/12 02:48:51;;;;;;;0.20;0.20;;;;;;;9.66;100.00;100917.06;5416073;26;20022;-59
2024/04/12 02:51:21;;;;;;;0.30;0.30;;;;;;;9.58;100.00;100904.66;5417683;26;20000;-59
2024/04/12 02:53:50;;;;;;;0.20;0.20;;;;;;;9.44;100.00;100908.28;5414213;26;20007;-60
2024/04/12 02:56:17;;;;;;;0.20;0.20;;;;;;;9.37;100.00;100916.25;5406377;26;20015;-59
2024/04/12 02:58:47;;;;;;;0.20;0.20;;;;;;;9.29;100.00;100917.22;5410050;26;20007;-59
2024/04/12 03:01:17;;;;;;;0.20;0.20;;;;;;;9.37;100.00;100913.56;5416434;26;20018;-59
2024/04/12 03:03:50;;;;;;;0.10;0.10;;;;;;;9.13;100.00;100911.28;5411105;26;20015;-59
2024/04/12 03:06:17;;;;;;;0.20;0.20;;;;;;;8.91;100.00;100903.28;5428127;26;20066;-59
2024/04/12 03:08:47;;;;;;;0.20;0.20;;;;;;;8.77;100.00;100904.97;5416408;26;20008;-59
2024/04/12 03:11:18;;;;;;;0.25;0.25;;;;;;;8.72;100.00;100904.72;5421673;26;20003;-59
2024/04/12 03:13:46;;;;;;;;;;;;;;;8.72;100.00;100902.03;5427293;26;20397;-59
2024/04/12 03:16:13;;;;;;;0.30;0.30;;;;;;;8.73;100.00;100901.00;5429091;26;19935;-59
2024/04/12 03:18:51;;;;;;;0.20;0.20;;;;;;;8.71;100.00;100903.06;5423452;26;20025;-59
2024/04/12 03:21:20;;;;;;;0.30;0.30;;;;;;;8.71;100.00;100903.06;5415139;26;20031;-59
2024/04/12 03:23:49;;;;;;;0.32;0.32;;;;;;;8.77;100.00;100899.63;5419887;26;20116;-59
2024/04/12 03:26:16;;;;;;;0.30;0.30;;;;;;;8.69;100.00;100906.94;5424521;26;20757;-59
2024/04/12 03:28:49;;;;;;;0.30;0.30;;;;;;;8.68;100.00;100892.72;5410581;26;20009;-59
2024/04/12 03:31:17;;;;;;;0.30;0.30;;;;;;;8.60;100.00;100895.53;5425984;26;19999;-59
2024/04/12 03:33:49;;;;;;;0.20;0.20;;;;;;;8.62;100.00;100898.84;5424821;26;20011;-59
2024/04/12 03:36:29;;;;;;;0.30;0.30;;;;;;;8.49;100.00;100899.53;5412586;26;20011;-59
2024/04/12 03:42:04;;;;;;;0.30;0.30;;;;;;;8.49;100.00;100893.38;5409236;26;20007;-59
2024/04/12 03:44:30;;;;;;;0.40;0.40;;;;;;;8.58;100.00;100898.38;5422965;26;20460;-59
2024/04/12 03:47:07;;;;;;;0.20;0.20;;;;;;;8.61;100.00;100897.19;5415927;26;20007;-59
2024/04/12 03:49:39;;;;;;;0.20;0.20;;;;;;;8.64;100.00;100891.47;5425004;26;20007;-59
2024/04/12 03:52:11;;;;;;;0.30;0.30;;;;;;;8.58;100.00;100885.03;5420167;26;20024;-59
2024/04/12 03:54:38;;;;;;;0.30;0.30;;;;;;;8.57;100.00;100880.72;5425482;26;20022;-59
2024/04/12 03:57:09;;;;;;;0.30;0.30;;;;;;;8.45;100.00;100889.41;5418576;26;20029;-59
2024/04/12 03:59:36;;;;;;;0.30;0.30;;;;;;;8.34;100.00;100891.50;5421174;26;20022;-59
2024/04/12 04:02:07;;;;;;;0.30;0.30;;;;;;;8.32;100.00;100893.53;5403188;26;20003;-59
2024/04/12 04:04:44;;;;;;;0.30;0.30;;;;;;;8.43;100.00;100892.25;5428058;26;20006;-59
2024/04/12 04:07:14;;;;;;;0.30;0.30;;;;;;;8.48;100.00;100891.69;5412567;26;20022;-59
2024/04/12 04:09:42;;;;;;;;;;;;;;;8.66;100.00;100894.75;5423378;26;20929;-59
2024/04/12 04:12:14;;;;;;;0.30;0.30;;;;;;;8.53;100.00;100894.63;5407553;26;19924;-59
2024/04/12 04:14:48;;;;;;;0.20;0.20;;;;;;;8.55;100.00;100881.91;5416320;26;20017;-59
2024/04/12 04:17:18;;;;;;;0.35;0.35;;;;;;;8.67;100.00;100879.59;5419540;26;19999;-59
2024/04/12 04:19:52;;;;;;;0.30;0.30;;;;;;;8.61;100.00;100870.44;5418547;26;20015;-59
2024/04/12 04:25:08;;;;;;;0.20;0.20;;;;;;;8.42;100.00;100882.59;5411222;26;20064;-59
2024/04/12 04:27:35;;;;;;;0.30;0.30;;;;;;;8.40;100.00;100874.75;5410730;26;20004;-58
2024/04/12 04:30:05;;;;;;;0.30;0.30;;;;;;;8.52;100.00;100884.97;5419568;26;20011;-59
2024/04/12 04:32:31;;;;;;;;;;;;;;;8.47;100.00;100892.72;5416487;26;20000;-59
2024/04/12 04:35:08;;;;;;;0.32;0.32;;;;;;;8.64;100.00;100902.16;5414022;26;20145;-59
2024/04/12 04:37:37;;;;;;;0.30;0.30;;;;;;;8.61;100.00;100913.22;5415154;26;20042;-59
2024/04/12 04:40:16;;;;;;;0.28;0.28;;;;;;;8.39;100.00;100918.53;5420546;26;20341;-59
2024/04/12 04:42:46;;;;;;;0.30;0.30;;;;;;;8.35;100.00;100921.72;5412501;26;20083;-58
2024/04/12 04:45:17;;;;;;;0.30;0.30;;;;;;;8.26;100.00;100912.97;5413746;26;20089;-59
2024/04/12 04:47:45;;;;;;;0.30;0.30;;;;;;;8.32;100.00;100920.25;5414205;26;20003;-59
2024/04/12 04:50:18;;;;;;;0.30;0.30;;;;;;;8.10;100.00;100922.03;5430233;26;20018;-59
2024/04/12 04:52:47;;;;;;;0.30;0.30;;;;;;;8.02;100.00;100923.97;5422982;26;20007;-59
2024/04/12 04:55:17;;;;;;;0.30;0.30;;;;;;;8.12;100.00;100916.50;5414885;26;20011;-59
2024/04/12 04:57:44;;;;;;;0.25;0.25;;;;;;;8.30;100.00;100916.94;5423497;26;20003;-59
2024/04/12 05:00:18;;;;;;;0.30;0.30;;;;;;;8.56;100.00;100916.47;5424736;26;20048;-59
2024/04/12 05:02:49;;;;;;;0.20;0.20;;;;;;;9.21;100.00;100912.00;5416962;26;20007;-59
2024/04/12 05:05:23;;;;;;;0.28;0.28;;;;;;;9.44;100.00;100919.81;5418461;26;20371;-59
2024/04/12 05:07:52;;;;;;;0.20;0.20;;;;;;;9.75;100.00;100912.41;5418285;26;20002;-59
2024/04/12 05:10:21;;;;;;;0.28;0.28;;;;;;;9.32;100.00;100916.00;5418308;26;20036;-59
2024/04/12 05:12:49;;;;;;;0.30;0.30;;;;;;;8.99;100.00;100915.69;5421501;26;20129;-60
2024/04/12 05:18:14;;;;;;;0.30;0.30;;;;;;;8.98;100.00;100904.16;5502989;25;20417;-59
2024/04/12 05:20:41;;;;;;;0.25;0.25;;;;;;;8.95;100.00;100909.06;5475675;26;20225;-59
2024/04/12 05:23:16;;;;;;;0.20;0.20;;;;;;;9.12;100.00;100921.16;5480192;26;20078;-59
2024/04/12 05:25:46;;;;;;;0.30;0.30;;;;;;;9.26;100.00;100922.94;5483511;25;20050;-59
2024/04/12 05:28:15;;;;;;;0.22;0.22;;;;;;;9.41;100.00;100924.69;5470166;26;20022;-58
2024/04/12 05:30:42;;;;;;;0.20;0.20;;;;;;;9.58;100.00;100926.06;5475697;26;20500;-59
2024/04/12 05:33:16;;;;;;;0.20;0.20;;;;;;;9.84;100.00;100932.66;5471256;26;20002;-59
2024/04/12 05:35:43;;;;;;;0.20;0.20;;;;;;;9.88;100.00;100931.22;5480835;26;20008;-59
2024/04/12 05:38:12;;;;;;;0.20;0.20;;;;;;;9.89;100.00;100928.34;5462990;25;20088;-59
2024/04/12 05:40:41;;;;;;;0.10;0.10;;;;;;;10.01;100.00;100931.31;5469529;26;20063;-59
2024/04/12 05:43:13;;;;;;;0.10;0.10;;;;;;;10.01;100.00;100930.47;5473981;25;21304;-59
2024/04/12 05:45:44;;;;;;;0.20;0.20;;;;;;;9.93;100.00;100931.47;5479376;25;20022;-59
2024/04/12 05:48:15;;;;;;;0.20;0.20;;;;;;;10.02;100.00;100932.97;5466780;26;20038;-59
2024/04/12 05:50:46;;;;;;;0.20;0.20;;;;;;;10.04;100.00;100935.47;5468847;26;20755;-59
2024/04/12 05:53:15;;;;;;;0.20;0.20;;;;;;;9.50;100.00;100935.06;5483456;26;20002;-59
2024/04/12 05:55:44;;;;;;;0.20;0.20;;;;;;;9.65;100.00;100926.94;5465247;26;20017;-59
2024/04/12 05:58:14;;;;;;;0.20;0.20;;;;;;;9.63;100.00;100933.53;5463350;25;20900;-58
2024/04/12 06:00:43;;;;;;;0.20;0.20;;;;;;;9.74;100.00;100937.53;5469540;26;20017;-58
2024/04/12 06:03:14;;;;;;;0.20;0.20;;;;;;;9.85;100.00;100926.25;5466503;26;20082;-58
2024/04/12 06:05:46;;;;;;;0.30;0.30;;;;;;;9.85;100.00;100923.59;5468649;26;20021;-59
2024/04/12 06:08:12;;;;;;;0.20;0.20;;;;;;;9.79;100.00;100924.38;5482704;26;20300;-58
2024/04/12 06:10:48;;;;;;;0.20;0.20;;;;;;;10.20;100.00;100934.31;5447226;26;20453;-59
2024/04/12 06:13:16;;;;;;;0.22;0.22;;;;;;;10.46;100.00;100934.47;5477432;26;20005;-59
2024/04/12 06:15:46;;;;;;;0.10;0.10;;;;;;;10.52;100.00;100933.66;5463969;26;19999;-59
2024/04/12 06:18:16;;;;;;;0.20;0.20;;;;;;;10.65;100.00;100929.38;5465976;26;19998;-59
2024/04/12 06:20:48;;;;;;;0.10;0.10;;;;;;;10.31;100.00;100928.44;5503753;25;19999;-59
2024/04/12 06:23:19;;;;;;;0.13;0.13;;;;;;;10.53;100.00;100935.31;5465926;26;20448;-59
2024/04/12 06:25:49;;;;;;;0.20;0.20;;;;;;;10.76;100.00;100934.16;5475932;26;20004;-59
2024/04/12 06:28:16;;;;;;;0.20;0.20;;;;;;;10.81;100.00;100937.06;5461723;26;20002;-59
2024/04/12 06:30:46;;;;;;;0.20;0.20;;;;;;;10.90;100.00;100941.19;5447015;26;20009;-59
2024/04/12 06:33:12;;;;;;;0.10;0.10;;;;;;;11.07;100.00;100946.19;5448131;26;20010;-59
2024/04/12 06:35:44;;;;;;;0.10;0.10;;;;;;;11.16;100.00;100950.34;5458849;26;20008;-58
2024/04/12 06:38:17;;;;;;;0.20;0.20;;;;;;;11.19;100.00;100947.25;5460959;26;20021;-58
2024/04/12 06:40:52;;;;;;;0.13;0.13;;;;;;;11.30;100.00;100953.84;5428085;26;20010;-58
2024/04/12 06:43:20;;;;;;;0.20;0.20;;;;;;;10.99;100.00;100955.25;5453985;26;20014;-58
2024/04/12 06:46:00;;;;;;;0.10;0.10;;;;;;;11.23;100.00;100945.78;5454971;26;20017;-58
2024/04/12 06:48:26;;;;;;;0.20;0.20;;;;;;;11.12;100.00;100944.53;5443798;26;20379;-58
2024/04/12 06:50:58;;;;;;;0.10;0.10;;;;;;;11.29;100.00;100950.34;5445266;26;20575;-58
2024/04/12 06:53:26;;;;;;;0.17;0.17;;;;;;;11.16;100.00;100951.16;5460940;26;20996;-58
2024/04/12 06:55:56;;;;;;;0.10;0.10;;;;;;;11.10;100.00;100956.50;5449017;26;20049;-58
2024/04/12 06:58:22;;;;;;;0.10;0.10;;;;;;;11.07;100.00;100954.25;5459506;26;20007;-58
2024/04/12 07:00:56;;;;;;;0.13;0.13;;;;;;;11.19;100.00;100957.97;5456496;26;20021;-59
2024/04/12 07:03:23;;;;;;;0.10;0.10;;;;;;;11.06;100.00;100958.78;5453439;26;20003;-59
2024/04/12 07:05:53;;;;;;;0.20;0.20;;;;;;;11.17;100.00;100962.72;5454603;26;20024;-59
2024/04/12 07:08:21;;;;;;;0.20;0.20;;;;;;;10.99;100.00;100963.31;5460477;26;20015;-58
2024/04/12 07:10:52;;;;;;;0.20;0.20;;;;;;;11.06;100.00;100960.63;5444782;26;20046;-59
2024/04/12 07:13:21;;;;;;;0.10;0.10;;;;;;;11.24;100.00;100955.50;5450803;26;20002;-58
2024/04/12 07:15:51;;;;;;;0.10;0.10;;;;;;;11.19;100.00;100950.75;5453301;26;19999;-58
2024/04/12 07:18:17;;;;;;;0.20;0.20;;;;;;;11.20;100.00;100947.03;5454334;26;20013;-58
2024/04/12 07:20:48;;;;;;;0.10;0.10;;;;;;;11.48;100.00;100953.25;5487911;26;20002;-58
2024/04/12 07:23:15;;;;;;;0.10;0.10;;;;;;;11.82;100.00;100961.09;5460192;26;20010;-58
2024/04/12 07:25:45;;;;;;;0.17;0.17;;;;;;;11.77;100.00;100958.19;5453615;26;20029;-58
2024/04/12 07:28:14;;;;;;;0.15;0.15;;;;;;;12.10;100.00;100968.09;5456381;26;20015;-59
2024/04/12 07:30:44;;;;;;;0.13;0.13;;;;;;;12.16;100.00;100958.38;5456013;26;20062;-59
2024/04/12 07:33:12;;;;;;;0.20;0.20;;;;;;;12.35;100.00;100964.72;5478531;26;20014;-59
2024/04/12 07:35:43;;;;;;;0.28;0.28;;;;;;;12.16;100.00;100961.06;5459403;26;20532;-59
2024/04/12 07:38:11;;;;;;;0.38;0.38;;;;;;;12.61;100.00;100953.88;5445258;26;20010;-59
2024/04/12 07:40:42;;;;;;;0.20;0.20;;;;;;;12.79;100.00;100949.66;5456280;26;20021;-59
2024/04/12 07:43:10;;;;;;;0.10;0.10;;;;;;;12.80;100.00;100946.75;5451767;26;20079;-59
2024/04/12 07:45:42;;;;;;;0.10;0.10;;;;;;;13.02;100.00;100939.16;5466326;26;20016;-59
2024/04/12 07:48:11;;;;;;;0.10;0.10;;;;;;;13.24;100.00;100952.28;5447769;26;20011;-59
2024/04/12 07:50:41;;;;;;;0.10;0.10;;;;;;;13.70;100.00;100956.50;5459616;26;20145;-59
2024/04/12 07:53:21;;;;;;;0.10;0.10;;;;;;;13.76;100.00;100950.25;5457975;26;20010;-59
2024/04/12 07:55:58;;;;;;;;;;;;;;;13.61;100.00;100942.50;5450510;26;20445;-59
2024/04/12 07:58:26;;;;;;;0.10;0.10;;;;;;;13.71;100.00;100942.00;5446026;26;19932;-59
2024/04/12 08:01:09;;;;;;;0.00;0.00;;;;;;;14.11;100.00;100942.44;5456442;26;20712;-59
2024/04/12 08:03:36;;;;;;;0.10;0.10;;;;;;;14.07;100.00;100948.47;5461910;26;20085;-59
2024/04/12 08:06:06;;;;;;;0.10;0.10;;;;;;;13.81;100.00;100950.41;5450564;26;20003;-59
2024/04/12 08:08:43;;;;;;;0.03;0.03;;;;;;;14.08;100.00;100953.66;5451455;26;19999;-59
2024/04/12 08:11:31;;;;;;;0.10;0.10;;;;;;;13.71;100.00;100966.25;5456468;26;20563;-59
2024/04/12 08:14:05;;;;;;;0.10;0.10;;;;;;;13.55;100.00;100954.97;5448565;26;20007;-59
2024/04/12 08:16:46;;;;;;;0.10;0.10;;;;;;;13.96;100.00;100953.56;5446523;26;20014;-59
2024/04/12 08:19:13;;;;;;;0.10;0.10;;;;;;;13.73;100.00;100961.47;5447270;26;20547;-59
2024/04/12 08:21:47;;;;;;;0.10;0.10;;;;;;;13.61;100.00;100957.84;5447401;26;20076;-57
2024/04/12 08:24:15;;;;;;;0.13;0.13;;;;;;;13.87;100.00;100954.88;5457867;26;20122;-57
2024/04/12 08:26:48;;;;;;;0.10;0.10;;;;;;;14.15;100.00;100953.56;5439102;26;20083;-57
2024/04/12 08:29:20;;;;;;;0.10;0.10;;;;;;;13.80;100.00;100963.06;5452126;26;19998;-60
2024/04/12 08:31:59;;;;;;;0.00;0.00;;;;;;;14.28;100.00;100958.84;5454679;26;20002;-58
2024/04/12 08:34:27;;;;;;;0.10;0.10;;;;;;;13.94;100.00;100963.75;5451107;26;20059;-57
2024/04/12 08:36:57;;;;;;;0.10;0.10;;;;;;;13.98;100.00;100970.34;5446146;26;20553;-57
2024/04/12 08:39:29;;;;;;;0.10;0.10;;;;;;;13.80;100.00;100956.81;5457713;26;20039;-57
2024/04/12 08:42:04;;;;;;;0.10;0.10;;;;;;;13.61;100.00;100961.34;5439388;26;20003;-57
2024/04/12 08:44:30;;;;;;;0.10;0.10;;;;;;;13.72;100.00;100949.03;5454187;26;20006;-57
2024/04/12 08:47:16;;;;;;;0.10;0.10;;;;;;;13.48;100.00;100964.13;5436002;26;20003;-58
2024/04/12 08:49:48;;;;;;;0.10;0.10;;;;;;;13.87;100.00;100968.38;5450011;26;20033;-58
2024/04/12 08:52:28;;;;;;;0.10;0.10;;;;;;;14.00;100.00;100968.25;5448979;26;19999;-58
2024/04/12 08:54:55;;;;;;;0.10;0.10;;;;;;;13.40;100.00;100967.09;5453356;26;20014;-58
2024/04/12 08:57:25;;;;;;;0.10;0.10;;;;;;;13.74;100.00;100973.88;5435792;26;20084;-58
2024/04/12 08:59:58;;;;;;;0.10;0.10;;;;;;;13.90;100.00;100969.78;5439787;26;20002;-58
2024/04/12 09:02:36;;;;;;;0.10;0.10;;;;;;;13.82;100.00;100968.22;5444833;26;20022;-58
2024/04/12 09:05:06;;;;;;;0.10;0.10;;;;;;;13.94;100.00;100971.81;5453790;26;20010;-58
2024/04/12 09:07:35;;;;;;;0.10;0.10;;;;;;;14.18;100.00;100980.13;5445377;26;20003;-57
2024/04/12 09:10:15;;;;;;;0.10;0.10;;;;;;;14.24;100.00;100980.03;5440796;26;20059;-58
2024/04/12 09:12:46;;;;;;;0.10;0.10;;;;;;;14.28;100.00;100982.25;5452351;26;20014;-57
2024/04/12 09:15:23;;;;;;;0.10;0.10;;;;;;;14.50;100.00;100977.25;5456584;26;20022;-57
2024/04/12 09:18:00;;;;;;;0.10;0.10;;;;;;;14.31;100.00;100976.44;5447454;26;19998;-58
2024/04/12 09:20:31;;;;;;;0.10;0.10;;;;;;;14.39;100.00;100976.13;5451618;26;19998;-58
2024/04/12 09:23:13;;;;;;;0.15;0.15;;;;;;;14.32;100.00;100970.81;5457861;26;20049;-59
2024/04/12 09:25:44;;;;;;;0.10;0.10;;;;;;;14.69;100.00;100987.00;5445281;26;20018;-59
2024/04/12 09:28:14;;;;;;;0.10;0.10;;;;;;;14.30;100.00;100978.28;5446207;26;19998;-58
2024/04/12 09:33:31;;;;;;;0.10;0.10;;;;;;;13.73;100.00;100981.16;5450032;26;20002;-58
2024/04/12 09:36:04;;;;;;;0.10;0.10;;;;;;;14.26;100.00;100979.81;5457874;26;20093;-58
2024/04/12 09:38:31;;;;;;;0.13;0.13;;;;;;;14.87;100.00;100981.56;5452590;26;20026;-58
2024/04/12 09:41:13;;;;;;;0.10;0.10;;;;;;;14.52;100.00;100988.66;5442302;26;19999;-59
2024/04/12 09:43:47;;;;;;;0.20;0.20;;;;;;;15.07;100.00;100977.78;5454392;26;20006;-58
2024/04/12 09:46:23;;;;;;;0.20;0.20;;;;;;;15.31;100.00;100981.41;5447439;26;20100;-58
2024/04/12 10:38:47;;;;;;;0.00;0.00;;;;;;;16.56;96.51;100958.59;5454256;26;20444;-58
2024/04/12 10:41:16;;;;;;;0.10;0.10;;;;;;;16.67;97.53;100958.78;5456424;26;20014;-58
2024/04/12 10:43:45;;;;;;;0.00;0.00;;;;;;;16.87;95.27;100959.22;5486375;26;20013;-58
2024/04/12 10:46:15;;;;;;;0.10;0.10;;;;;;;16.70;97.40;100963.72;5451447;26;20026;-58
2024/04/12 10:48:42;;;;;;;;;;;;;;;16.57;98.46;100957.53;5449992;26;20006;-58
2024/04/12 10:51:14;;;;;;;0.00;0.00;;;;;;;16.58;96.16;100955.66;5455573;26;19940;-58
2024/04/12 10:53:49;;;;;;;0.00;0.00;;;;;;;16.90;93.76;100958.75;5461753;26;20006;-58
2024/04/12 10:56:18;;;;;;;0.00;0.00;;;;;;;15.63;100.00;100960.31;5452871;26;20035;-59
2024/04/12 10:58:51;;;;;;;0.10;0.10;;;;;;;15.93;100.00;100962.13;5441380;26;20020;-59
2024/04/12 11:01:19;;;;;;;0.00;0.00;;;;;;;15.69;100.00;100959.38;5485264;26;19999;-58
2024/04/12 11:03:56;;;;;;;0.10;0.10;;;;;;;15.64;100.00;100951.13;5457466;26;20009;-58
2024/04/12 11:06:30;;;;;;;0.10;0.10;;;;;;;16.10;100.00;100959.50;5462029;26;20630;-58
2024/04/12 11:09:04;;;;;;;0.10;0.10;;;;;;;16.79;98.34;100957.72;5465776;26;20390;-59
2024/04/12 11:11:38;;;;;;;0.08;0.08;;;;;;;16.32;100.00;100949.69;5454516;26;20021;-58
2024/04/12 11:14:15;;;;;;;0.10;0.10;;;;;;;16.95;97.35;100945.28;5458078;26;20807;-58
2024/04/12 11:31:14;;;;;;;0.10;0.10;;;;;;;17.11;97.20;100910.34;5449533;26;19999;-60
2024/04/12 11:33:51;;;;;;;0.00;0.00;;;;;;;17.08;97.40;100905.44;5457548;26;19998;-60
2024/04/12 11:36:23;;;;;;;0.10;0.10;;;;;;;17.08;96.37;100913.56;5457963;26;20018;-59
2024/04/12 11:38:53;;;;;;;0.10;0.10;;;;;;;17.10;96.84;100903.28;5452231;26;20021;-59
2024/04/12 11:41:25;;;;;;;0.10;0.10;;;;;;;17.54;94.45;100900.75;5457077;26;20003;-60
2024/04/12 11:43:54;;;;;;;0.10;0.10;;;;;;;17.22;95.72;100898.59;5452112;26;20017;-60
2024/04/12 11:46:24;;;;;;;0.00;0.00;;;;;;;17.17;97.58;100899.38;5456333;26;20087;-57
2024/04/12 11:48:56;;;;;;;0.00;0.00;;;;;;;17.33;95.40;100903.13;5458484;26;20535;-59
2024/04/12 11:51:22;;;;;;;0.10;0.10;;;;;;;16.79;97.34;100894.63;5448436;26;20026;-58
2024/04/12 11:53:54;;;;;;;0.00;0.00;;;;;;;17.26;93.15;100902.47;5449327;26;20960;-59
2024/04/12 11:56:22;;;;;;;0.03;0.03;;;;;;;16.86;97.41;100900.72;5485778;26;20014;-58
2024/04/12 11:58:51;;;;;;;0.00;0.00;;;;;;;17.36;96.09;100896.41;5450227;26;20006;-59
2024/04/12 12:01:20;;;;;;;0.00;0.00;;;;;;;17.25;93.12;100896.25;5439916;26;20014;-59
2024/04/12 12:03:49;;;;;;;0.00;0.00;;;;;;;18.10;88.58;100891.53;5461036;26;20034;-59
2024/04/12 12:06:22;;;;;;;0.00;0.00;;;;;;;18.03;90.25;100890.09;5448224;26;20013;-59
2024/04/12 12:08:57;;;;;;;0.00;0.00;;;;;;;18.27;89.40;100887.91;5455158;26;20128;-59
2024/04/12 12:11:27;;;;;;;0.00;0.00;;;;;;;18.01;88.68;100897.66;5450474;26;20729;-58
2024/04/12 12:13:56;;;;;;;0.00;0.00;;;;;;;17.30;93.29;100902.78;5460629;26;20010;-59
2024/04/12 12:16:22;;;;;;;0.00;0.00;;;;;;;17.75;91.08;100897.28;5437120;26;20026;-59
2024/04/12 12:18:56;;;;;;;0.00;0.00;;;;;;;18.01;89.81;100889.50;5456036;26;20075;-59
2024/04/12 12:21:23;;;;;;;0.00;0.00;;;;;;;17.13;94.53;100889.25;5460134;26;19999;-58
2024/04/12 12:23:52;;;;;;;0.00;0.00;;;;;;;16.80;97.02;100888.16;5457795;26;20080;-58
2024/04/12 12:26:18;;;;;;;0.10;0.10;;;;;;;17.44;94.44;100888.66;5444695;26;20387;-59
2024/04/12 12:28:52;;;;;;;0.08;0.08;;;;;;;17.93;92.42;100881.81;5457107;26;20002;-58
2024/04/12 12:31:19;;;;;;;0.00;0.00;;;;;;;18.05;90.94;100871.66;5454634;26;20029;-59
2024/04/12 12:33:49;;;;;;;0.00;0.00;;;;;;;18.18;91.80;100875.88;5444358;26;20329;-58
2024/04/12 12:36:16;;;;;;;0.00;0.00;;;;;;;18.35;89.71;100873.13;5445281;26;20073;-58
2024/04/12 12:38:45;;;;;;;0.00;0.00;;;;;;;18.35;90.62;100875.81;5439068;26;19999;-59
2024/04/12 12:41:13;;;;;;;0.00;0.00;;;;;;;17.58;91.70;100869.38;5459150;26;20076;-58
2024/04/12 12:43:44;;;;;;;0.00;0.00;;;;;;;16.95;95.90;100869.47;5451538;26;20151;-58
2024/04/12 12:46:13;;;;;;;0.00;0.00;;;;;;;17.34;95.92;100861.41;5447860;26;20007;-58
2024/04/12 12:48:42;;;;;;;0.03;0.03;;;;;;;18.04;92.04;100864.59;5458631;26;20670;-58
2024/04/12 12:51:09;;;;;;;0.00;0.00;;;;;;;17.79;91.09;100862.31;5458061;26;20018;-58
2024/04/12 12:53:37;;;;;;;0.00;0.00;;;;;;;17.84;89.04;100857.81;5455517;26;20489;-58